Tonic Sea — D5AZ8 — position and weather

sailwx.info

Track history (hours):
 
Tides and Currents Weather Stations Pressure Air Temp Water Temp Dewpoint Dewpoint Depression Visibility Wind Speed Wind Dir Waves Ship Positions

Tonic Sea

Last reported at 2014-Sep-18 04:33 UTC. Time now 2014-Oct-24 13:38 UTC.
Position N 37°07' E 026°29'.
Warning: this ship's position is 36 days out of date.

Length 229 m; draft 13.4 m.

Type: Cargo ship. MMSI: 636015479.

Date/timePositionNaut miles runAvg speedWind from/ knotsBaromVisibWave heightAir tempDewpointWater temp
2014-Sep-18 04:33N 37°07' E 026°29'9 9.0
2014-Sep-18 03:34N 37°13' E 026°20'9 9.2
2014-Sep-18 02:33N 37°17' E 026°10'9 9.2
2014-Sep-18 01:33N 37°23' E 026°01'9 9.2
2014-Sep-18 00:33N 37°28' E 025°51'9 9.2
2014-Sep-17 23:33N 37°35' E 025°44'10 9.6
2014-Sep-17 22:27N 37°45' E 025°41'238 7.5
2014-Sep-16 14:33N 40°55' E 028°48'8 7.6
2014-Sep-16 13:33N 40°58' E 028°57'  
2014-Sep-09 19:20N 46°34' E 031°07'0 0.0
2014-Sep-09 18:29N 46°34' E 031°07'0 0.0
2014-Sep-09 17:32N 46°34' E 031°07'0 0.1
2014-Sep-09 16:15N 46°34' E 031°07'2 3.1
2014-Sep-09 15:33N 46°34' E 031°04'11 8.8
2014-Sep-09 14:17N 46°24' E 030°57'31210.8
2014-Sep-08 09:26N 41°21' E 029°15'  
Track history (hours):
 
Tides and Currents Weather Stations Pressure Air Temp Water Temp Dewpoint Dewpoint Depression Visibility Wind Speed Wind Dir Waves Ship Positions

Tonic Sea

Last reported at 2014-Sep-18 04:33 UTC. Time now 2014-Oct-24 13:38 UTC.
Position N 37°07' E 026°29'.
Warning: this ship's position is 36 days out of date.

Length 229 m; draft 13.4 m.

Type: Cargo ship. MMSI: 636015479.

Date/timePositionNaut miles runAvg speedWind from/ knotsBaromVisibWave heightAir tempDewpointWater temp
2014-Sep-18 04:33N 37°07' E 026°29'9 9.0
2014-Sep-18 03:34N 37°13' E 026°20'9 9.2
2014-Sep-18 02:33N 37°17' E 026°10'9 9.2
2014-Sep-18 01:33N 37°23' E 026°01'9 9.2
2014-Sep-18 00:33N 37°28' E 025°51'9 9.2
2014-Sep-17 23:33N 37°35' E 025°44'10 9.6
2014-Sep-17 22:27N 37°45' E 025°41'238 7.5
2014-Sep-16 14:33N 40°55' E 028°48'8 7.6
2014-Sep-16 13:33N 40°58' E 028°57'  
2014-Sep-09 19:20N 46°34' E 031°07'0 0.0
2014-Sep-09 18:29N 46°34' E 031°07'0 0.0
2014-Sep-09 17:32N 46°34' E 031°07'0 0.1
2014-Sep-09 16:15N 46°34' E 031°07'2 3.1
2014-Sep-09 15:33N 46°34' E 031°04'11 8.8
2014-Sep-09 14:17N 46°24' E 030°57'31210.8
2014-Sep-08 09:26N 41°21' E 029°15'  

Dump ship's entire track history